sensor_id;sensor_type;location;lat;lon;timestamp;P1;durP1;ratioP1;P2;durP2;ratioP2
7935;SDS011;4013;49.744;8.118;2024-01-07T14:58:54;13.03;;;6.57;;
7935;SDS011;4013;49.744;8.118;2024-01-07T15:01:20;7.93;;;6.13;;
7935;SDS011;4013;49.744;8.118;2024-01-07T15:03:47;7.87;;;5.53;;
7935;SDS011;4013;49.744;8.118;2024-01-07T15:06:14;15.80;;;10.50;;
7935;SDS011;4013;49.744;8.118;2024-01-07T15:08:41;9.73;;;5.70;;
7935;SDS011;4013;49.744;8.118;2024-01-07T15:11:09;8.80;;;6.03;;
7935;SDS011;4013;49.744;8.118;2024-01-07T15:13:36;7.77;;;5.63;;
7935;SDS011;4013;49.744;8.118;2024-01-07T15:16:06;11.37;;;7.73;;
7935;SDS011;4013;49.744;8.118;2024-01-07T15:18:33;10.27;;;9.17;;
7935;SDS011;4013;49.744;8.118;2024-01-07T15:21:01;8.00;;;6.53;;
7935;SDS011;4013;49.744;8.118;2024-01-07T15:23:30;7.73;;;6.37;;
7935;SDS011;4013;49.744;8.118;2024-01-07T15:25:57;7.83;;;5.70;;
7935;SDS011;4013;49.744;8.118;2024-01-07T15:28:24;8.53;;;5.97;;
7935;SDS011;4013;49.744;8.118;2024-01-07T15:30:51;9.17;;;6.07;;
7935;SDS011;4013;49.744;8.118;2024-01-07T15:33:19;11.83;;;7.57;;
7935;SDS011;4013;49.744;8.118;2024-01-07T15:35:46;8.67;;;5.80;;
7935;SDS011;4013;49.744;8.118;2024-01-07T15:38:13;8.83;;;5.33;;
7935;SDS011;4013;49.744;8.118;2024-01-07T15:40:40;6.73;;;5.30;;
7935;SDS011;4013;49.744;8.118;2024-01-07T15:43:08;9.60;;;6.33;;
7935;SDS011;4013;49.744;8.118;2024-01-07T15:45:37;9.23;;;5.60;;
7935;SDS011;4013;49.744;8.118;2024-01-07T15:48:04;8.33;;;5.47;;
7935;SDS011;4013;49.744;8.118;2024-01-07T15:50:33;8.83;;;5.10;;
7935;SDS011;4013;49.744;8.118;2024-01-07T15:52:59;11.20;;;7.47;;
7935;SDS011;4013;49.744;8.118;2024-01-07T15:55:27;7.67;;;5.17;;
7935;SDS011;4013;49.744;8.118;2024-01-07T15:57:54;7.37;;;4.80;;
7935;SDS011;4013;49.744;8.118;2024-01-07T16:00:21;12.93;;;8.57;;
7935;SDS011;4013;49.744;8.118;2024-01-07T16:02:48;9.50;;;6.97;;
7935;SDS011;4013;49.744;8.118;2024-01-07T16:05:14;4.77;;;4.27;;
7935;SDS011;4013;49.744;8.118;2024-01-07T16:07:43;7.73;;;5.17;;
7935;SDS011;4013;49.744;8.118;2024-01-07T16:10:10;6.40;;;4.40;;
7935;SDS011;4013;49.744;8.118;2024-01-07T16:12:37;6.30;;;4.77;;
7935;SDS011;4013;49.744;8.118;2024-01-07T16:15:04;7.27;;;6.03;;
7935;SDS011;4013;49.744;8.118;2024-01-07T16:17:32;5.03;;;3.77;;
7935;SDS011;4013;49.744;8.118;2024-01-07T16:19:59;5.30;;;4.03;;
7935;SDS011;4013;49.744;8.118;2024-01-07T16:22:26;6.27;;;4.93;;
7935;SDS011;4013;49.744;8.118;2024-01-07T16:24:54;8.23;;;5.87;;
7935;SDS011;4013;49.744;8.118;2024-01-07T16:27:21;6.03;;;5.00;;
7935;SDS011;4013;49.744;8.118;2024-01-07T16:29:48;8.10;;;5.40;;
7935;SDS011;4013;49.744;8.118;2024-01-07T16:32:15;6.67;;;4.23;;
7935;SDS011;4013;49.744;8.118;2024-01-07T16:34:43;4.87;;;3.80;;
7935;SDS011;4013;49.744;8.118;2024-01-07T16:37:10;6.33;;;3.93;;
7935;SDS011;4013;49.744;8.118;2024-01-07T16:39:37;4.50;;;3.73;;
7935;SDS011;4013;49.744;8.118;2024-01-07T16:42:05;4.10;;;3.40;;
7935;SDS011;4013;49.744;8.118;2024-01-07T16:44:32;4.67;;;3.47;;
7935;SDS011;4013;49.744;8.118;2024-01-07T16:46:59;4.83;;;3.70;;
7935;SDS011;4013;49.744;8.118;2024-01-07T16:49:26;3.33;;;2.90;;
7935;SDS011;4013;49.744;8.118;2024-01-07T16:51:53;5.07;;;3.53;;
7935;SDS011;4013;49.744;8.118;2024-01-07T16:54:20;3.50;;;3.00;;
7935;SDS011;4013;49.744;8.118;2024-01-07T16:56:47;3.80;;;3.43;;
7935;SDS011;4013;49.744;8.118;2024-01-07T16:59:15;5.40;;;3.73;;
7935;SDS011;4013;49.744;8.118;2024-01-07T17:01:42;4.00;;;2.87;;
7935;SDS011;4013;49.744;8.118;2024-01-07T17:04:09;6.10;;;2.93;;
7935;SDS011;4013;49.744;8.118;2024-01-07T17:06:36;6.43;;;3.87;;
7935;SDS011;4013;49.744;8.118;2024-01-07T17:09:03;4.70;;;3.63;;
7935;SDS011;4013;49.744;8.118;2024-01-07T17:11:30;4.43;;;2.97;;
7935;SDS011;4013;49.744;8.118;2024-01-07T17:13:57;4.10;;;3.00;;
7935;SDS011;4013;49.744;8.118;2024-01-07T17:16:25;5.87;;;3.43;;
7935;SDS011;4013;49.744;8.118;2024-01-07T17:18:53;5.53;;;3.30;;
7935;SDS011;4013;49.744;8.118;2024-01-07T17:21:20;3.10;;;2.43;;
7935;SDS011;4013;49.744;8.118;2024-01-07T17:23:47;5.40;;;3.40;;
7935;SDS011;4013;49.744;8.118;2024-01-07T17:26:16;2.60;;;2.40;;
7935;SDS011;4013;49.744;8.118;2024-01-07T17:28:44;4.90;;;3.30;;
7935;SDS011;4013;49.744;8.118;2024-01-07T17:31:11;2.97;;;2.37;;
7935;SDS011;4013;49.744;8.118;2024-01-07T17:33:39;2.80;;;2.50;;
7935;SDS011;4013;49.744;8.118;2024-01-07T17:36:06;2.47;;;2.27;;
7935;SDS011;4013;49.744;8.118;2024-01-07T17:38:33;2.93;;;2.10;;
7935;SDS011;4013;49.744;8.118;2024-01-07T17:41:00;3.17;;;2.20;;
7935;SDS011;4013;49.744;8.118;2024-01-07T17:43:26;2.60;;;2.10;;
7935;SDS011;4013;49.744;8.118;2024-01-07T17:45:53;2.77;;;2.30;;
7935;SDS011;4013;49.744;8.118;2024-01-07T17:48:20;4.13;;;2.60;;
7935;SDS011;4013;49.744;8.118;2024-01-07T17:50:48;4.27;;;2.93;;
7935;SDS011;4013;49.744;8.118;2024-01-07T17:53:15;4.30;;;2.97;;
7935;SDS011;4013;49.744;8.118;2024-01-07T17:55:42;2.80;;;2.60;;
7935;SDS011;4013;49.744;8.118;2024-01-07T17:58:10;1.97;;;1.87;;
7935;SDS011;4013;49.744;8.118;2024-01-07T18:00:37;2.40;;;2.20;;
7935;SDS011;4013;49.744;8.118;2024-01-07T18:03:03;2.37;;;2.10;;
7935;SDS011;4013;49.744;8.118;2024-01-07T18:05:32;2.33;;;2.03;;
7935;SDS011;4013;49.744;8.118;2024-01-07T18:08:01;3.07;;;2.60;;
7935;SDS011;4013;49.744;8.118;2024-01-07T18:10:29;2.43;;;2.00;;
7935;SDS011;4013;49.744;8.118;2024-01-07T18:12:56;2.20;;;1.90;;
7935;SDS011;4013;49.744;8.118;2024-01-07T18:15:23;2.50;;;1.90;;
7935;SDS011;4013;49.744;8.118;2024-01-07T18:17:50;2.27;;;2.00;;
7935;SDS011;4013;49.744;8.118;2024-01-07T18:20:17;2.57;;;2.10;;
7935;SDS011;4013;49.744;8.118;2024-01-07T18:22:45;2.90;;;1.93;;
7935;SDS011;4013;49.744;8.118;2024-01-07T18:25:14;1.97;;;1.80;;
7935;SDS011;4013;49.744;8.118;2024-01-07T18:27:42;2.10;;;1.90;;
7935;SDS011;4013;49.744;8.118;2024-01-07T18:30:10;2.47;;;2.07;;
7935;SDS011;4013;49.744;8.118;2024-01-07T18:32:38;1.97;;;1.87;;
7935;SDS011;4013;49.744;8.118;2024-01-07T18:35:05;2.93;;;2.07;;
7935;SDS011;4013;49.744;8.118;2024-01-07T18:37:32;3.07;;;2.30;;
7935;SDS011;4013;49.744;8.118;2024-01-07T18:39:59;2.50;;;2.07;;
7935;SDS011;4013;49.744;8.118;2024-01-07T18:42:28;2.57;;;2.37;;
7935;SDS011;4013;49.744;8.118;2024-01-07T18:44:55;5.40;;;3.53;;
7935;SDS011;4013;49.744;8.118;2024-01-07T18:47:22;3.03;;;2.40;;
7935;SDS011;4013;49.744;8.118;2024-01-07T18:49:50;2.20;;;2.00;;
7935;SDS011;4013;49.744;8.118;2024-01-07T18:52:17;2.37;;;2.17;;
7935;SDS011;4013;49.744;8.118;2024-01-07T18:54:44;2.90;;;2.10;;
7935;SDS011;4013;49.744;8.118;2024-01-07T18:57:11;2.13;;;1.90;;
7935;SDS011;4013;49.744;8.118;2024-01-07T18:59:40;2.63;;;2.03;;
7935;SDS011;4013;49.744;8.118;2024-01-07T19:02:07;2.40;;;2.20;;
7935;SDS011;4013;49.744;8.118;2024-01-07T19:04:35;2.43;;;1.90;;
7935;SDS011;4013;49.744;8.118;2024-01-07T19:07:03;1.80;;;1.70;;
7935;SDS011;4013;49.744;8.118;2024-01-07T19:09:30;3.07;;;2.00;;
7935;SDS011;4013;49.744;8.118;2024-01-07T19:11:56;3.73;;;2.60;;
7935;SDS011;4013;49.744;8.118;2024-01-07T19:14:23;4.70;;;2.63;;
7935;SDS011;4013;49.744;8.118;2024-01-07T19:16:52;2.43;;;2.23;;
7935;SDS011;4013;49.744;8.118;2024-01-07T19:19:19;3.40;;;1.90;;
7935;SDS011;4013;49.744;8.118;2024-01-07T19:21:46;2.93;;;2.00;;
7935;SDS011;4013;49.744;8.118;2024-01-07T19:24:13;1.53;;;1.43;;
7935;SDS011;4013;49.744;8.118;2024-01-07T19:26:39;2.27;;;2.00;;
7935;SDS011;4013;49.744;8.118;2024-01-07T19:29:07;1.93;;;1.83;;
7935;SDS011;4013;49.744;8.118;2024-01-07T19:31:34;2.27;;;2.07;;
7935;SDS011;4013;49.744;8.118;2024-01-07T19:34:04;2.90;;;2.07;;
7935;SDS011;4013;49.744;8.118;2024-01-07T19:36:31;2.20;;;2.00;;
7935;SDS011;4013;49.744;8.118;2024-01-07T19:38:59;2.63;;;1.90;;
7935;SDS011;4013;49.744;8.118;2024-01-07T19:41:30;2.20;;;2.00;;
7935;SDS011;4013;49.744;8.118;2024-01-07T19:44:01;3.70;;;3.00;;
7935;SDS011;4013;49.744;8.118;2024-01-07T19:46:29;2.67;;;2.20;;
7935;SDS011;4013;49.744;8.118;2024-01-07T19:48:58;2.13;;;1.93;;
7935;SDS011;4013;49.744;8.118;2024-01-07T19:51:27;2.23;;;1.90;;
7935;SDS011;4013;49.744;8.118;2024-01-07T19:53:55;1.70;;;1.60;;
7935;SDS011;4013;49.744;8.118;2024-01-07T19:56:22;2.47;;;2.10;;
7935;SDS011;4013;49.744;8.118;2024-01-07T19:58:49;2.83;;;2.10;;
7935;SDS011;4013;49.744;8.118;2024-01-07T20:01:17;2.47;;;2.10;;
7935;SDS011;4013;49.744;8.118;2024-01-07T20:03:44;1.77;;;1.67;;
7935;SDS011;4013;49.744;8.118;2024-01-07T20:06:11;1.80;;;1.70;;
7935;SDS011;4013;49.744;8.118;2024-01-07T20:08:40;2.10;;;2.00;;
7935;SDS011;4013;49.744;8.118;2024-01-07T20:11:08;3.00;;;2.20;;
7935;SDS011;4013;49.744;8.118;2024-01-07T20:13:35;2.43;;;1.63;;
7935;SDS011;4013;49.744;8.118;2024-01-07T20:16:03;1.80;;;1.70;;
7935;SDS011;4013;49.744;8.118;2024-01-07T20:18:30;2.30;;;2.10;;
7935;SDS011;4013;49.744;8.118;2024-01-07T20:20:57;2.20;;;2.00;;
7935;SDS011;4013;49.744;8.118;2024-01-07T20:23:24;2.20;;;2.00;;
7935;SDS011;4013;49.744;8.118;2024-01-07T20:25:52;1.90;;;1.63;;
7935;SDS011;4013;49.744;8.118;2024-01-07T20:28:19;2.53;;;1.90;;
7935;SDS011;4013;49.744;8.118;2024-01-07T20:30:46;1.90;;;1.67;;
7935;SDS011;4013;49.744;8.118;2024-01-07T20:33:14;5.73;;;3.83;;
7935;SDS011;4013;49.744;8.118;2024-01-07T20:35:41;2.10;;;1.93;;
7935;SDS011;4013;49.744;8.118;2024-01-07T20:38:09;2.40;;;2.10;;
7935;SDS011;4013;49.744;8.118;2024-01-07T20:40:36;1.90;;;1.80;;
7935;SDS011;4013;49.744;8.118;2024-01-07T20:43:05;2.00;;;1.80;;
7935;SDS011;4013;49.744;8.118;2024-01-07T20:45:35;3.23;;;2.23;;
7935;SDS011;4013;49.744;8.118;2024-01-07T20:48:04;2.10;;;1.90;;
7935;SDS011;4013;49.744;8.118;2024-01-07T20:50:31;2.20;;;2.00;;
7935;SDS011;4013;49.744;8.118;2024-01-07T20:52:58;2.60;;;2.40;;
7935;SDS011;4013;49.744;8.118;2024-01-07T20:55:25;3.30;;;2.00;;
7935;SDS011;4013;49.744;8.118;2024-01-07T20:57:52;2.30;;;2.03;;
7935;SDS011;4013;49.744;8.118;2024-01-07T21:00:21;3.00;;;2.00;;
7935;SDS011;4013;49.744;8.118;2024-01-07T21:02:49;2.13;;;1.93;;
7935;SDS011;4013;49.744;8.118;2024-01-07T21:05:17;2.40;;;1.93;;
7935;SDS011;4013;49.744;8.118;2024-01-07T21:07:44;3.17;;;1.80;;
7935;SDS011;4013;49.744;8.118;2024-01-07T21:10:12;1.93;;;1.77;;
7935;SDS011;4013;49.744;8.118;2024-01-07T21:12:40;3.63;;;2.17;;
7935;SDS011;4013;49.744;8.118;2024-01-07T21:15:07;3.07;;;2.10;;
7935;SDS011;4013;49.744;8.118;2024-01-07T21:17:37;2.20;;;2.00;;
7935;SDS011;4013;49.744;8.118;2024-01-07T21:20:06;2.20;;;2.00;;
7935;SDS011;4013;49.744;8.118;2024-01-07T21:22:34;1.73;;;1.63;;
7935;SDS011;4013;49.744;8.118;2024-01-07T21:25:01;2.43;;;1.90;;
7935;SDS011;4013;49.744;8.118;2024-01-07T21:27:28;2.20;;;2.00;;
7935;SDS011;4013;49.744;8.118;2024-01-07T21:29:55;4.67;;;2.20;;
7935;SDS011;4013;49.744;8.118;2024-01-07T21:32:22;2.23;;;2.03;;
7935;SDS011;4013;49.744;8.118;2024-01-07T21:34:52;2.73;;;1.97;;
7935;SDS011;4013;49.744;8.118;2024-01-07T21:37:19;4.07;;;2.30;;
7935;SDS011;4013;49.744;8.118;2024-01-07T21:39:46;2.03;;;1.83;;
7935;SDS011;4013;49.744;8.118;2024-01-07T21:42:13;2.20;;;2.00;;
7935;SDS011;4013;49.744;8.118;2024-01-07T21:44:41;3.57;;;2.37;;
7935;SDS011;4013;49.744;8.118;2024-01-07T21:47:09;3.37;;;2.20;;
7935;SDS011;4013;49.744;8.118;2024-01-07T21:49:36;3.17;;;2.30;;
7935;SDS011;4013;49.744;8.118;2024-01-07T21:52:04;3.10;;;2.30;;
7935;SDS011;4013;49.744;8.118;2024-01-07T21:54:31;2.20;;;2.00;;
7935;SDS011;4013;49.744;8.118;2024-01-07T21:56:58;2.30;;;2.10;;
7935;SDS011;4013;49.744;8.118;2024-01-07T21:59:25;2.10;;;1.90;;
7935;SDS011;4013;49.744;8.118;2024-01-07T22:01:52;2.50;;;2.20;;
7935;SDS011;4013;49.744;8.118;2024-01-07T22:04:21;2.00;;;1.90;;
7935;SDS011;4013;49.744;8.118;2024-01-07T22:06:48;2.00;;;1.90;;
7935;SDS011;4013;49.744;8.118;2024-01-07T22:09:17;2.20;;;2.00;;
7935;SDS011;4013;49.744;8.118;2024-01-07T22:11:43;2.57;;;2.10;;
7935;SDS011;4013;49.744;8.118;2024-01-07T22:14:12;2.30;;;2.10;;
7935;SDS011;4013;49.744;8.118;2024-01-07T22:16:39;2.10;;;2.00;;
7935;SDS011;4013;49.744;8.118;2024-01-07T22:19:06;3.43;;;1.90;;
7935;SDS011;4013;49.744;8.118;2024-01-07T22:21:33;2.00;;;1.80;;
7935;SDS011;4013;49.744;8.118;2024-01-07T22:24:00;2.07;;;1.97;;
7935;SDS011;4013;49.744;8.118;2024-01-07T22:26:29;2.30;;;2.10;;
7935;SDS011;4013;49.744;8.118;2024-01-07T22:28:56;2.30;;;2.10;;
7935;SDS011;4013;49.744;8.118;2024-01-07T22:31:22;2.07;;;1.87;;
7935;SDS011;4013;49.744;8.118;2024-01-07T22:33:49;2.50;;;2.30;;
7935;SDS011;4013;49.744;8.118;2024-01-07T22:36:16;2.30;;;2.10;;
7935;SDS011;4013;49.744;8.118;2024-01-07T22:38:43;1.97;;;1.87;;
7935;SDS011;4013;49.744;8.118;2024-01-07T22:41:09;2.13;;;1.80;;
7935;SDS011;4013;49.744;8.118;2024-01-07T22:43:38;1.93;;;1.83;;
7935;SDS011;4013;49.744;8.118;2024-01-07T22:46:04;2.50;;;2.07;;
7935;SDS011;4013;49.744;8.118;2024-01-07T22:48:32;2.33;;;2.13;;
7935;SDS011;4013;49.744;8.118;2024-01-07T22:51:00;2.00;;;1.90;;
7935;SDS011;4013;49.744;8.118;2024-01-07T22:53:27;1.70;;;1.60;;
7935;SDS011;4013;49.744;8.118;2024-01-07T22:55:54;2.40;;;2.20;;
7935;SDS011;4013;49.744;8.118;2024-01-07T22:58:21;2.93;;;2.00;;
7935;SDS011;4013;49.744;8.118;2024-01-07T23:00:49;2.07;;;1.87;;
7935;SDS011;4013;49.744;8.118;2024-01-07T23:03:16;2.57;;;1.77;;
